createdAt,value
2022-08-11T00:02:55.959Z,74.30
2022-08-11T00:05:58.619Z,74.46
2022-08-11T00:09:04.457Z,74.01
2022-08-11T00:12:14.686Z,74.75
2022-08-11T00:15:17.265Z,74.71
2022-08-11T00:18:20.375Z,75.69
2022-08-11T00:21:59.691Z,74.93
2022-08-11T00:24:52.580Z,75.28
2022-08-11T00:27:57.111Z,75.62
2022-08-11T00:31:04.444Z,75.47
2022-08-11T00:34:11.358Z,75.87
2022-08-11T00:37:20.625Z,75.46
2022-08-11T00:40:29.767Z,76.21
2022-08-11T00:44:09.692Z,75.41
2022-08-11T00:47:17.660Z,75.57
2022-08-11T00:50:38.649Z,75.38
2022-08-11T00:53:54.564Z,74.91
2022-08-11T00:57:36.754Z,75.27
2022-08-11T01:01:11.572Z,75.34
2022-08-11T01:04:58.852Z,76.05
2022-08-11T01:08:38.320Z,76.13
2022-08-11T01:11:57.787Z,76.75
2022-08-11T01:15:37.541Z,77.50
2022-08-11T01:18:54.360Z,76.66
2022-08-11T01:22:28.754Z,76.32
2022-08-11T01:26:08.398Z,76.61
2022-08-11T01:29:13.383Z,77.12
2022-08-11T01:32:55.342Z,77.35
2022-08-11T01:36:22.299Z,76.80
2022-08-11T01:39:43.540Z,76.35
2022-08-11T01:43:22.984Z,75.99
2022-08-11T01:46:32.718Z,75.54
2022-08-11T01:50:09.862Z,76.88
2022-08-11T01:53:27.096Z,78.96
2022-08-11T01:57:02.414Z,77.70
2022-08-11T02:00:11.829Z,77.94
2022-08-11T02:03:39.267Z,76.90
2022-08-11T02:07:13.932Z,77.41
2022-08-11T02:10:54.648Z,78.06
2022-08-11T02:14:19.215Z,78.39
2022-08-11T02:17:33.236Z,78.29
2022-08-11T02:21:02.639Z,78.11
2022-08-11T02:24:09.165Z,79.66
2022-08-11T02:27:52.791Z,78.95
2022-08-11T02:32:15.671Z,77.88
2022-08-11T02:35:12.218Z,77.80
2022-08-11T02:38:43.234Z,79.09
2022-08-11T02:42:03.983Z,78.03
2022-08-11T02:45:11.837Z,78.64
2022-08-11T02:48:57.192Z,77.48
2022-08-11T02:52:24.159Z,77.04
2022-08-11T02:55:44.629Z,77.91
2022-08-11T02:59:56.123Z,78.79
2022-08-11T03:03:18.486Z,78.27
2022-08-11T03:06:41.479Z,78.02
2022-08-11T03:09:54.911Z,78.74
2022-08-11T03:13:41.473Z,78.62
2022-08-11T03:16:53.402Z,78.95
2022-08-11T03:20:21.593Z,78.41
2022-08-11T03:23:45.300Z,78.16
2022-08-11T03:26:56.246Z,78.32
2022-08-11T03:30:12.291Z,77.91
2022-08-11T03:33:48.635Z,78.47
2022-08-11T03:37:16.959Z,78.29
2022-08-11T03:40:38.532Z,78.69
2022-08-11T03:43:58.372Z,79.88
2022-08-11T03:47:27.366Z,78.98
2022-08-11T03:50:55.392Z,80.26
2022-08-11T03:54:36.595Z,81.01
2022-08-11T03:58:15.995Z,81.38
2022-08-11T04:01:49.238Z,80.55
2022-08-11T04:05:13.479Z,81.27
2022-08-11T04:08:36.925Z,81.46
2022-08-11T04:12:04.249Z,82.51
2022-08-11T04:15:46.731Z,81.50
2022-08-11T04:19:11.139Z,81.19
2022-08-11T04:22:31.854Z,82.23
2022-08-11T04:25:57.689Z,81.65
2022-08-11T04:29:25.665Z,82.68
2022-08-11T04:33:16.218Z,82.98
2022-08-11T04:37:14.423Z,84.52
2022-08-11T04:40:38.369Z,84.58
2022-08-11T04:44:07.759Z,84.41
2022-08-11T04:48:03.891Z,85.83
2022-08-11T04:51:51.385Z,85.60
2022-08-11T04:55:39.677Z,86.32
2022-08-11T04:59:19.684Z,85.66
2022-08-11T05:02:35.604Z,86.82
2022-08-11T05:05:56.242Z,88.35
2022-08-11T05:09:06.237Z,87.64
2022-08-11T05:12:10.933Z,89.82
2022-08-11T05:15:43.098Z,91.11
2022-08-11T05:19:08.640Z,91.95
2022-08-11T05:22:31.402Z,91.59
2022-08-11T05:26:43.421Z,91.66
2022-08-11T05:30:12.711Z,93.05
2022-08-11T05:33:40.776Z,93.91
2022-08-11T05:36:48.691Z,94.07
2022-08-11T05:40:13.695Z,94.30
2022-08-11T05:43:35.018Z,92.38
2022-08-11T05:47:00.585Z,93.02
2022-08-11T05:50:31.098Z,93.52
2022-08-11T05:53:53.938Z,92.03
2022-08-11T05:57:00.806Z,90.00
2022-08-11T06:00:10.562Z,86.73
2022-08-11T06:03:26.020Z,86.95
2022-08-11T06:06:29.274Z,84.50
2022-08-11T06:09:47.683Z,82.44
2022-08-11T06:12:53.905Z,75.89
2022-08-11T06:15:58.549Z,74.37
2022-08-11T06:19:02.518Z,72.47
2022-08-11T06:22:07.029Z,68.02
2022-08-11T06:25:10.645Z,64.92
2022-08-11T06:28:18.601Z,63.03
2022-08-11T06:31:26.333Z,62.81
2022-08-11T06:35:10.255Z,57.74
2022-08-11T06:38:28.534Z,57.60
2022-08-11T06:41:39.193Z,56.14
2022-08-11T06:44:44.270Z,54.11
2022-08-11T06:47:47.862Z,55.87
2022-08-11T06:51:11.879Z,55.31
2022-08-11T06:54:15.461Z,54.03
2022-08-11T06:57:37.538Z,50.86
2022-08-11T07:00:40.772Z,51.77
2022-08-11T07:03:49.980Z,52.44
2022-08-11T07:07:25.043Z,50.69
2022-08-11T07:10:59.092Z,50.28
2022-08-11T07:14:20.740Z,49.18
2022-08-11T07:17:24.081Z,48.18
2022-08-11T07:20:45.383Z,47.54
2022-08-11T07:24:06.402Z,46.93
2022-08-11T07:27:35.613Z,45.55
2022-08-11T07:30:42.102Z,45.76
2022-08-11T07:34:08.076Z,46.89
2022-08-11T07:37:17.947Z,45.99
2022-08-11T07:40:24.318Z,41.80
2022-08-11T07:43:26.512Z,44.75
2022-08-11T07:46:47.323Z,44.37
2022-08-11T07:50:09.222Z,44.41
2022-08-11T07:53:13.655Z,42.28
2022-08-11T07:56:23.326Z,42.06
2022-08-11T08:00:04.304Z,38.73
2022-08-11T08:03:38.276Z,41.92
2022-08-11T08:07:16.010Z,44.01
2022-08-11T08:10:37.912Z,41.57
2022-08-11T08:13:59.124Z,40.86
2022-08-11T08:17:20.119Z,42.62
2022-08-11T08:20:26.053Z,41.18
2022-08-11T08:23:34.435Z,39.92
2022-08-11T08:26:55.920Z,40.97
2022-08-11T08:30:17.218Z,40.16
2022-08-11T08:33:25.453Z,38.84
2022-08-11T08:36:27.483Z,39.97
2022-08-11T08:39:31.718Z,38.86
2022-08-11T08:42:44.447Z,39.56
2022-08-11T08:45:47.613Z,39.21
2022-08-11T08:48:50.466Z,39.35
2022-08-11T08:52:20.114Z,39.32
2022-08-11T08:55:21.514Z,38.37
2022-08-11T08:58:24.522Z,38.13
2022-08-11T09:01:32.022Z,37.55
2022-08-11T09:04:34.906Z,39.07
2022-08-11T09:07:39.725Z,37.95
2022-08-11T09:10:44.274Z,35.83
2022-08-11T09:14:03.249Z,36.07
2022-08-11T09:17:09.186Z,35.00
2022-08-11T09:20:34.775Z,35.88
2022-08-11T09:24:19.334Z,36.25
2022-08-11T09:27:20.390Z,37.41
2022-08-11T09:30:28.162Z,36.86
2022-08-11T09:33:31.214Z,37.27
2022-08-11T09:36:52.778Z,36.51
2022-08-11T09:40:14.750Z,36.84
2022-08-11T09:43:37.351Z,38.36
2022-08-11T09:46:39.859Z,39.08
2022-08-11T09:49:45.176Z,38.36
2022-08-11T09:53:16.913Z,38.47
2022-08-11T09:56:35.528Z,38.92
2022-08-11T09:59:37.990Z,37.49
2022-08-11T10:02:46.562Z,38.04
2022-08-11T10:06:12.893Z,39.86
2022-08-11T10:09:20.719Z,40.13
2022-08-11T10:12:27.042Z,39.28
2022-08-11T10:15:39.640Z,37.07
2022-08-11T10:19:03.512Z,37.38
2022-08-11T10:22:27.742Z,38.55
2022-08-11T10:25:48.331Z,38.40
2022-08-11T10:29:11.945Z,39.93
2022-08-11T10:32:32.576Z,39.76
2022-08-11T10:35:38.770Z,38.13
2022-08-11T10:38:41.072Z,39.47
2022-08-11T10:42:08.243Z,36.86
2022-08-11T10:45:30.499Z,34.10
2022-08-11T10:48:38.034Z,35.43
2022-08-11T10:51:59.587Z,36.31
2022-08-11T10:55:21.356Z,35.38
2022-08-11T10:58:44.092Z,35.24
2022-08-11T11:01:47.294Z,34.46
2022-08-11T11:04:58.234Z,32.92
2022-08-11T11:08:38.261Z,32.88
2022-08-11T11:12:04.618Z,33.67
2022-08-11T11:15:26.293Z,33.70
2022-08-11T11:18:36.065Z,32.27
2022-08-11T11:21:39.880Z,31.13
2022-08-11T11:25:10.023Z,31.93
2022-08-11T11:28:49.789Z,31.79
2022-08-11T11:32:27.343Z,32.54
2022-08-11T11:36:07.714Z,29.68
2022-08-11T11:39:10.040Z,29.70
2022-08-11T11:42:13.875Z,30.88
2022-08-11T11:45:24.230Z,32.81
2022-08-11T11:48:28.850Z,33.59
2022-08-11T11:51:31.401Z,31.49
2022-08-11T11:54:36.675Z,33.14
2022-08-11T11:57:58.550Z,34.14
2022-08-11T12:01:17.374Z,35.41
2022-08-11T12:04:20.660Z,36.32
2022-08-11T12:07:42.273Z,35.70
2022-08-11T12:11:35.055Z,37.79
2022-08-11T12:14:37.542Z,33.18
2022-08-11T12:17:40.311Z,32.55
2022-08-11T12:20:43.833Z,33.86
2022-08-11T12:24:06.402Z,33.46
2022-08-11T12:27:24.886Z,31.79
2022-08-11T12:30:28.307Z,32.56
2022-08-11T12:33:30.899Z,33.17
2022-08-11T12:36:42.136Z,32.26
2022-08-11T12:40:16.343Z,32.40
2022-08-11T12:43:56.789Z,30.75
2022-08-11T12:47:02.239Z,31.01
2022-08-11T12:50:23.829Z,32.64
2022-08-11T12:53:28.988Z,32.45
2022-08-11T12:56:57.730Z,32.12
2022-08-11T13:00:19.740Z,31.44
2022-08-11T13:03:40.818Z,31.32
2022-08-11T13:06:43.380Z,33.73
2022-08-11T13:09:46.606Z,30.57
2022-08-11T13:12:49.386Z,30.32
2022-08-11T13:15:52.327Z,32.49
2022-08-11T13:18:56.809Z,32.19
2022-08-11T13:21:59.355Z,30.93
2022-08-11T13:25:04.099Z,32.16
2022-08-11T13:28:07.395Z,33.25
2022-08-11T13:31:15.038Z,32.14
2022-08-11T13:34:18.303Z,32.04
2022-08-11T13:38:18.843Z,31.49
2022-08-11T13:40:55.628Z,31.84
2022-08-11T13:43:59.379Z,32.18
2022-08-11T13:47:07.519Z,31.41
2022-08-11T13:50:11.084Z,31.42
2022-08-11T13:53:17.080Z,31.69
2022-08-11T13:56:22.469Z,33.27
2022-08-11T13:59:29.869Z,32.14
2022-08-11T14:02:34.106Z,32.65
2022-08-11T14:05:47.790Z,32.29
2022-08-11T14:08:53.699Z,32.93
2022-08-11T14:12:24.168Z,33.05
2022-08-11T14:15:34.705Z,31.51
2022-08-11T14:18:40.973Z,34.78
2022-08-11T14:22:07.366Z,35.53
2022-08-11T14:25:12.178Z,32.71
2022-08-11T14:28:29.816Z,34.23
2022-08-11T14:31:34.921Z,34.08
2022-08-11T14:34:41.452Z,34.03
2022-08-11T14:37:44.326Z,34.00
2022-08-11T14:41:06.757Z,34.75
2022-08-11T14:44:27.972Z,34.69
2022-08-11T14:47:34.356Z,34.73
2022-08-11T14:50:36.535Z,35.47
2022-08-11T14:53:39.014Z,34.44
2022-08-11T14:56:58.042Z,37.05
2022-08-11T15:00:04.034Z,36.32
2022-08-11T15:03:13.259Z,34.62
2022-08-11T15:06:16.235Z,36.66
2022-08-11T15:09:18.813Z,35.22
2022-08-11T15:12:32.519Z,34.42
2022-08-11T15:15:55.279Z,34.84
2022-08-11T15:18:57.949Z,32.58
2022-08-11T15:22:18.790Z,33.72
2022-08-11T15:25:21.169Z,31.84
2022-08-11T15:28:43.675Z,32.61
2022-08-11T15:32:06.578Z,32.79
2022-08-11T15:35:28.163Z,34.00
2022-08-11T15:39:31.200Z,33.92
2022-08-11T15:42:54.297Z,33.88
2022-08-11T15:46:02.439Z,34.63
2022-08-11T15:49:09.573Z,32.47
2022-08-11T15:52:17.038Z,35.52
2022-08-11T15:55:20.217Z,36.33
2022-08-11T15:58:42.680Z,38.51
2022-08-11T16:02:04.384Z,40.43
2022-08-11T16:05:10.268Z,41.65
2022-08-11T16:08:16.139Z,41.61
2022-08-11T16:11:18.930Z,43.36
2022-08-11T16:14:41.936Z,42.96
2022-08-11T16:17:45.853Z,44.36
2022-08-11T16:20:51.405Z,43.32
2022-08-11T16:23:55.742Z,42.70
2022-08-11T16:27:07.949Z,43.80
2022-08-11T16:30:15.619Z,45.67
2022-08-11T16:33:48.393Z,45.56
2022-08-11T16:36:59.743Z,46.08
2022-08-11T16:40:02.363Z,46.59
2022-08-11T16:43:25.079Z,47.23
2022-08-11T16:46:46.030Z,46.49
2022-08-11T16:49:53.314Z,46.67
2022-08-11T16:52:55.650Z,46.03
2022-08-11T16:56:03.114Z,46.41
2022-08-11T16:59:15.656Z,46.56
2022-08-11T17:02:40.285Z,46.84
2022-08-11T17:06:04.220Z,46.46
2022-08-11T17:09:25.400Z,46.05
2022-08-11T17:12:48.009Z,47.79
2022-08-11T17:16:10.243Z,47.55
2022-08-11T17:20:43.178Z,48.35
2022-08-11T17:23:13.940Z,48.75
2022-08-11T17:26:25.472Z,49.81
2022-08-11T17:29:55.033Z,50.32
2022-08-11T17:33:16.008Z,50.51
2022-08-11T17:36:19.955Z,50.58
2022-08-11T17:39:29.150Z,50.57
2022-08-11T17:42:51.398Z,51.17
2022-08-11T17:46:13.961Z,51.05
2022-08-11T17:49:19.621Z,51.58
2022-08-11T17:52:42.654Z,51.57
2022-08-11T17:56:04.899Z,51.87
2022-08-11T17:59:32.435Z,52.40
2022-08-11T18:02:59.486Z,51.82
2022-08-11T18:06:03.000Z,52.49
2022-08-11T18:09:27.050Z,53.03
2022-08-11T18:12:48.043Z,52.55
2022-08-11T18:16:09.997Z,54.79
2022-08-11T18:19:31.098Z,53.85
2022-08-11T18:22:57.376Z,55.03
2022-08-11T18:26:19.914Z,54.88
2022-08-11T18:29:41.842Z,57.20
2022-08-11T18:33:39.859Z,57.54
2022-08-11T18:36:49.060Z,59.17
2022-08-11T18:40:15.762Z,58.60
2022-08-11T18:43:39.279Z,58.62
2022-08-11T18:47:02.519Z,58.01
2022-08-11T18:50:38.733Z,59.71
2022-08-11T18:54:02.837Z,58.98
2022-08-11T18:57:25.473Z,60.37
2022-08-11T19:00:47.045Z,61.28
2022-08-11T19:04:11.956Z,63.37
2022-08-11T19:07:39.247Z,63.91
2022-08-11T19:11:03.049Z,65.02
2022-08-11T19:14:24.455Z,64.80
2022-08-11T19:17:47.810Z,64.88
2022-08-11T19:21:11.992Z,64.84
2022-08-11T19:24:34.917Z,65.18
2022-08-11T19:27:57.052Z,65.75
2022-08-11T19:31:22.200Z,67.39
2022-08-11T19:34:44.311Z,66.69
2022-08-11T19:38:08.166Z,67.62
2022-08-11T19:41:56.132Z,67.27
2022-08-11T19:45:18.618Z,68.26
2022-08-11T19:48:45.237Z,67.14
2022-08-11T19:52:08.187Z,66.88
2022-08-11T19:55:29.184Z,66.73
2022-08-11T19:58:50.538Z,65.91
2022-08-11T20:02:14.695Z,66.52
2022-08-11T20:05:37.180Z,66.96
2022-08-11T20:09:05.659Z,67.24
2022-08-11T20:12:33.168Z,68.57
2022-08-11T20:15:56.320Z,69.41
2022-08-11T20:19:18.667Z,69.75
2022-08-11T20:22:45.443Z,70.19
2022-08-11T20:26:29.504Z,68.94
2022-08-11T20:29:49.409Z,68.16
2022-08-11T20:33:11.232Z,67.55
2022-08-11T20:36:32.941Z,68.49
2022-08-11T20:39:55.027Z,68.36
2022-08-11T20:44:07.019Z,67.63
2022-08-11T20:46:59.300Z,68.13
2022-08-11T20:50:20.579Z,68.44
2022-08-11T20:53:44.905Z,68.57
2022-08-11T20:57:12.657Z,67.79
2022-08-11T21:00:39.301Z,68.60
2022-08-11T21:04:00.851Z,69.46
2022-08-11T21:11:06.230Z,67.84
2022-08-11T21:14:31.022Z,67.73
2022-08-11T21:18:00.520Z,68.72
2022-08-11T21:21:30.332Z,70.00
2022-08-11T21:25:06.978Z,70.50
2022-08-11T21:28:28.313Z,72.55
2022-08-11T21:31:50.886Z,73.07
2022-08-11T21:35:12.762Z,73.33
2022-08-11T21:38:34.247Z,75.91
2022-08-11T21:41:56.182Z,75.13
2022-08-11T21:45:17.884Z,74.93
2022-08-11T21:48:39.499Z,73.96
2022-08-11T21:52:00.023Z,75.48
2022-08-11T21:55:21.185Z,76.25
2022-08-11T21:58:43.771Z,76.64
2022-08-11T22:02:06.216Z,75.75
2022-08-11T22:05:30.267Z,76.79
2022-08-11T22:08:52.906Z,77.53
2022-08-11T22:12:35.197Z,76.37
2022-08-11T22:15:58.514Z,76.80
2022-08-11T22:19:20.089Z,77.58
2022-08-11T22:22:52.006Z,77.03
2022-08-11T22:26:13.947Z,75.77
2022-08-11T22:29:38.319Z,76.42
2022-08-11T22:33:12.399Z,77.76
2022-08-11T22:36:36.712Z,77.28
2022-08-11T22:40:02.234Z,77.91
2022-08-11T22:43:24.407Z,77.30
2022-08-11T22:46:45.576Z,76.94
2022-08-11T22:50:10.119Z,75.78
2022-08-11T22:53:57.470Z,76.03
2022-08-11T22:57:14.976Z,75.59
2022-08-11T23:00:35.943Z,75.93
2022-08-11T23:03:57.111Z,74.28
2022-08-11T23:07:50.388Z,74.86
2022-08-11T23:11:01.873Z,76.18
2022-08-11T23:14:23.118Z,75.08
2022-08-11T23:17:45.327Z,76.49
2022-08-11T23:21:06.770Z,76.56
2022-08-11T23:24:29.019Z,75.98
2022-08-11T23:27:51.712Z,75.82
2022-08-11T23:31:13.458Z,76.62
2022-08-11T23:35:03.860Z,76.58
2022-08-11T23:38:25.774Z,75.74
2022-08-11T23:41:46.812Z,76.18
2022-08-11T23:45:09.848Z,76.25
2022-08-11T23:48:32.579Z,75.24
2022-08-11T23:51:53.714Z,76.41
2022-08-11T23:55:14.303Z,75.89
2022-08-11T23:58:35.139Z,75.35
